createdAt,value
2022-11-08T00:01:57.136Z,16.17
2022-11-08T00:04:25.304Z,16.10
2022-11-08T00:07:10.866Z,15.23
2022-11-08T00:09:57.385Z,18.48
2022-11-08T00:12:42.290Z,17.08
2022-11-08T00:15:10.555Z,16.30
2022-11-08T00:17:38.188Z,13.57
2022-11-08T00:20:06.489Z,15.32
2022-11-08T00:22:34.087Z,15.15
2022-11-08T00:25:02.971Z,15.23
2022-11-08T00:27:30.454Z,16.58
2022-11-08T00:29:57.966Z,16.00
2022-11-08T00:32:26.532Z,13.70
2022-11-08T00:34:54.218Z,14.65
2022-11-08T00:37:22.607Z,15.73
2022-11-08T00:39:50.159Z,15.02
2022-11-08T00:42:19.247Z,13.80
2022-11-08T00:44:46.807Z,14.52
2022-11-08T00:47:14.283Z,15.30
2022-11-08T00:49:41.768Z,15.60
2022-11-08T00:52:09.403Z,14.18
2022-11-08T00:54:36.887Z,15.10
2022-11-08T00:57:04.523Z,16.02
2022-11-08T00:59:33.329Z,16.77
2022-11-08T01:02:00.995Z,19.50
2022-11-08T01:04:28.535Z,15.82
2022-11-08T01:06:56.025Z,25.15
2022-11-08T01:09:23.539Z,21.08
2022-11-08T01:11:50.995Z,18.15
2022-11-08T01:14:18.509Z,15.82
2022-11-08T01:16:47.432Z,15.68
2022-11-08T01:19:14.994Z,15.27
2022-11-08T01:21:42.451Z,13.45
2022-11-08T01:24:10.100Z,16.27
2022-11-08T01:26:37.599Z,14.65
2022-11-08T01:29:05.090Z,25.17
2022-11-08T01:31:33.448Z,16.00
2022-11-08T01:34:02.295Z,16.80
2022-11-08T01:36:30.146Z,18.55
2022-11-08T01:38:58.788Z,13.68
2022-11-08T01:41:27.179Z,15.02
2022-11-08T01:43:55.484Z,11.95
2022-11-08T01:46:37.857Z,14.77
2022-11-08T01:49:22.885Z,14.63
2022-11-08T01:51:52.459Z,13.70
2022-11-08T01:54:21.782Z,13.50
2022-11-08T01:56:49.533Z,15.23
2022-11-08T01:59:18.459Z,11.93
2022-11-08T02:01:46.302Z,14.23
2022-11-08T02:04:15.104Z,15.32
2022-11-08T02:06:45.176Z,13.77
2022-11-08T02:09:14.749Z,13.57
2022-11-08T02:11:42.902Z,14.60
2022-11-08T02:14:10.666Z,11.77
2022-11-08T02:16:38.308Z,14.07
2022-11-08T02:19:07.324Z,14.00
2022-11-08T02:21:38.852Z,13.65
2022-11-08T02:24:09.588Z,13.73
2022-11-08T02:26:37.878Z,13.07
2022-11-08T02:29:24.536Z,12.43
2022-11-08T02:31:52.053Z,14.77
2022-11-08T02:34:19.830Z,12.90
2022-11-08T02:36:48.662Z,13.30
2022-11-08T02:39:17.624Z,13.90
2022-11-08T02:41:45.155Z,13.80
2022-11-08T02:44:12.704Z,14.27
2022-11-08T02:46:40.203Z,13.02
2022-11-08T02:49:07.706Z,12.95
2022-11-08T02:51:35.191Z,13.45
2022-11-08T02:54:02.753Z,14.50
2022-11-08T02:56:31.668Z,14.52
2022-11-08T02:58:59.215Z,14.68
2022-11-08T03:01:27.060Z,13.77
2022-11-08T03:03:54.661Z,12.25
2022-11-08T03:06:22.172Z,14.38
2022-11-08T03:08:49.695Z,13.82
2022-11-08T03:11:17.374Z,11.82
2022-11-08T03:13:46.242Z,12.68
2022-11-08T03:16:13.794Z,13.40
2022-11-08T03:18:41.307Z,11.52
2022-11-08T03:21:08.809Z,12.75
2022-11-08T03:23:36.441Z,13.23
2022-11-08T03:26:03.933Z,12.00
2022-11-08T03:28:31.564Z,12.68
2022-11-08T03:31:00.457Z,14.50
2022-11-08T03:33:28.001Z,13.55
2022-11-08T03:35:55.523Z,13.80
2022-11-08T03:38:23.103Z,13.45
2022-11-08T03:40:50.665Z,15.52
2022-11-08T03:43:18.174Z,15.20
2022-11-08T03:45:46.466Z,12.23
2022-11-08T03:48:15.600Z,12.73
2022-11-08T03:50:43.364Z,13.75
2022-11-08T03:53:11.003Z,14.80
2022-11-08T03:55:38.545Z,13.18
2022-11-08T03:58:06.036Z,14.15
2022-11-08T04:00:33.622Z,14.15
2022-11-08T04:03:01.980Z,14.50
2022-11-08T04:05:32.379Z,14.73
2022-11-08T04:08:00.261Z,13.75
2022-11-08T04:10:27.791Z,14.48
2022-11-08T04:13:12.956Z,13.75
2022-11-08T04:15:40.574Z,15.88
2022-11-08T04:18:25.567Z,13.05
2022-11-08T04:21:12.270Z,12.10
2022-11-08T04:23:39.749Z,14.45
2022-11-08T04:26:07.913Z,14.13
2022-11-08T04:28:36.765Z,11.93
2022-11-08T04:31:04.913Z,13.63
2022-11-08T04:33:32.441Z,15.10
2022-11-08T04:36:04.010Z,13.85
2022-11-08T04:38:31.615Z,13.23
2022-11-08T04:41:03.675Z,13.95
2022-11-08T04:43:31.926Z,12.27
2022-11-08T04:46:00.278Z,13.13
2022-11-08T04:48:27.894Z,13.80
2022-11-08T04:50:55.604Z,14.43
2022-11-08T04:53:24.481Z,14.07
2022-11-08T04:55:51.921Z,15.70
2022-11-08T04:58:19.805Z,14.68
2022-11-08T05:00:47.642Z,14.20
2022-11-08T05:03:15.140Z,14.35
2022-11-08T05:05:42.628Z,15.52
2022-11-08T05:08:10.126Z,14.45
2022-11-08T05:10:40.100Z,14.32
2022-11-08T05:13:07.633Z,14.43
2022-11-08T05:15:35.734Z,14.55
2022-11-08T05:18:03.232Z,13.98
2022-11-08T05:20:48.206Z,14.05
2022-11-08T05:23:27.543Z,16.33
2022-11-08T05:26:00.662Z,16.42
2022-11-08T05:28:28.157Z,14.10
2022-11-08T05:30:56.509Z,13.23
2022-11-08T05:33:24.383Z,14.18
2022-11-08T05:35:51.878Z,13.73
2022-11-08T05:38:20.849Z,15.82
2022-11-08T05:40:48.864Z,15.27
2022-11-08T05:43:17.970Z,14.55
2022-11-08T05:45:46.134Z,13.85
2022-11-08T05:48:13.627Z,15.40
2022-11-08T05:50:41.105Z,15.00
2022-11-08T05:53:08.565Z,15.20
2022-11-08T05:55:36.071Z,14.45
2022-11-08T05:58:03.649Z,14.43
2022-11-08T06:00:32.544Z,14.05
2022-11-08T06:03:00.105Z,13.45
2022-11-08T06:05:27.867Z,14.00
2022-11-08T06:07:55.373Z,15.48
2022-11-08T06:10:22.935Z,14.95
2022-11-08T06:12:50.668Z,14.40
2022-11-08T06:15:18.260Z,14.60
2022-11-08T06:17:47.153Z,15.65
2022-11-08T06:20:14.812Z,15.70
2022-11-08T06:22:43.399Z,15.35
2022-11-08T06:25:11.019Z,17.40
2022-11-08T06:27:38.563Z,16.00
2022-11-08T06:30:06.666Z,16.92
2022-11-08T06:32:34.310Z,15.98
2022-11-08T06:35:03.167Z,17.38
2022-11-08T06:37:34.736Z,16.33
2022-11-08T06:40:02.348Z,15.98
2022-11-08T06:42:29.961Z,14.65
2022-11-08T06:44:57.451Z,15.55
2022-11-08T06:47:24.961Z,15.68
2022-11-08T06:49:52.458Z,15.93
2022-11-08T06:52:21.353Z,15.25
2022-11-08T06:54:52.074Z,16.10
2022-11-08T06:57:19.611Z,15.38
2022-11-08T06:59:47.131Z,16.08
2022-11-08T07:02:14.749Z,16.15
2022-11-08T07:04:42.470Z,16.20
2022-11-08T07:07:09.921Z,15.90
2022-11-08T07:09:38.832Z,16.20
2022-11-08T07:12:06.493Z,16.50
2022-11-08T07:14:34.852Z,15.82
2022-11-08T07:17:02.366Z,15.88
2022-11-08T07:19:29.856Z,15.15
2022-11-08T07:21:57.387Z,16.52
2022-11-08T07:24:24.863Z,17.52
2022-11-08T07:26:53.725Z,16.52
2022-11-08T07:29:21.208Z,18.10
2022-11-08T07:31:48.800Z,16.15
2022-11-08T07:34:17.559Z,16.48
2022-11-08T07:36:45.025Z,17.73
2022-11-08T07:39:12.529Z,16.15
2022-11-08T07:41:40.006Z,15.95
2022-11-08T07:44:08.856Z,18.15
2022-11-08T07:46:36.403Z,16.85
2022-11-08T07:49:03.917Z,18.33
2022-11-08T07:51:31.612Z,18.15
2022-11-08T07:54:02.804Z,18.25
2022-11-08T07:56:31.005Z,17.10
2022-11-08T07:58:58.604Z,17.88
2022-11-08T08:01:27.505Z,17.25
2022-11-08T08:03:55.099Z,16.88
2022-11-08T08:06:25.312Z,18.48
2022-11-08T08:08:52.905Z,16.83
2022-11-08T08:11:20.505Z,16.60
2022-11-08T08:13:48.044Z,17.38
2022-11-08T08:16:15.554Z,34.45
2022-11-08T08:18:44.708Z,18.33
2022-11-08T08:21:13.787Z,16.95
2022-11-08T08:23:41.302Z,16.00
2022-11-08T08:26:08.936Z,18.60
2022-11-08T08:28:36.412Z,17.35
2022-11-08T08:31:06.832Z,17.77
2022-11-08T08:33:34.848Z,20.02
2022-11-08T08:36:04.238Z,17.48
2022-11-08T08:38:32.235Z,17.13
2022-11-08T08:40:59.914Z,19.10
2022-11-08T08:43:28.433Z,19.05
2022-11-08T08:45:56.194Z,19.35
2022-11-08T08:48:23.699Z,19.30
2022-11-08T08:50:51.189Z,18.75
2022-11-08T08:53:20.432Z,17.50
2022-11-08T08:55:48.388Z,16.88
2022-11-08T08:58:18.200Z,20.13
2022-11-08T09:03:37.325Z,19.45
2022-11-08T09:06:05.078Z,21.60
2022-11-08T09:08:34.092Z,20.50
2022-11-08T09:11:02.331Z,18.95
2022-11-08T09:13:30.885Z,19.63
2022-11-08T09:16:00.180Z,20.23
2022-11-08T09:18:31.350Z,18.25
2022-11-08T09:20:59.195Z,20.27
2022-11-08T09:23:26.729Z,21.20
2022-11-08T09:25:59.325Z,19.40
2022-11-08T09:28:30.947Z,20.50
2022-11-08T09:31:00.533Z,19.55
2022-11-08T09:36:00.822Z,20.00
2022-11-08T09:38:28.362Z,19.98
2022-11-08T09:41:02.653Z,18.80
2022-11-08T09:45:58.028Z,19.40
2022-11-08T09:48:27.675Z,21.52
2022-11-08T09:50:56.280Z,19.40
2022-11-08T09:53:27.432Z,20.30
2022-11-08T09:55:57.985Z,17.92
2022-11-08T09:58:31.430Z,20.77
2022-11-08T10:01:00.091Z,18.03
2022-11-08T10:03:27.778Z,18.67
2022-11-08T10:06:13.529Z,18.10
2022-11-08T10:08:45.089Z,16.65
2022-11-08T10:11:18.490Z,17.42
2022-11-08T10:13:53.439Z,17.40
2022-11-08T10:16:25.807Z,19.50
2022-11-08T10:19:10.909Z,19.38
2022-11-08T10:21:44.005Z,19.77
2022-11-08T10:24:15.901Z,18.42
2022-11-08T10:26:45.295Z,18.05
2022-11-08T10:29:19.157Z,17.40
2022-11-08T10:31:47.742Z,18.45
2022-11-08T10:34:18.428Z,18.92
2022-11-08T10:36:46.898Z,17.50
2022-11-08T10:39:16.667Z,19.58
2022-11-08T10:41:46.010Z,18.90
2022-11-08T10:44:15.384Z,18.98
2022-11-08T10:46:45.332Z,17.65
2022-11-08T10:49:18.035Z,18.15
2022-11-08T10:51:46.172Z,19.58
2022-11-08T10:54:32.486Z,19.30
2022-11-08T10:56:59.980Z,20.17
2022-11-08T10:59:30.996Z,20.38
2022-11-08T11:02:00.137Z,20.85
2022-11-08T11:04:28.438Z,18.85
2022-11-08T11:06:56.007Z,19.65
2022-11-08T11:09:27.762Z,19.35
2022-11-08T11:11:58.898Z,20.40
2022-11-08T11:14:26.727Z,19.15
2022-11-08T11:16:56.533Z,21.25
2022-11-08T11:19:26.194Z,20.38
2022-11-08T11:21:57.588Z,21.02
2022-11-08T11:24:25.527Z,18.42
2022-11-08T11:27:01.538Z,19.58
2022-11-08T11:29:30.350Z,18.85
2022-11-08T11:31:58.296Z,17.75
2022-11-08T11:34:33.192Z,18.42
2022-11-08T11:37:02.632Z,16.67
2022-11-08T11:39:32.970Z,17.55
2022-11-08T11:42:24.029Z,22.02
2022-11-08T11:44:56.436Z,17.00
2022-11-08T11:47:29.571Z,16.38
2022-11-08T11:49:59.080Z,15.48
2022-11-08T11:52:26.599Z,16.40
2022-11-08T11:54:54.532Z,16.67
2022-11-08T11:57:29.820Z,16.25
2022-11-08T12:00:02.892Z,15.40
2022-11-08T12:02:41.447Z,17.17
2022-11-08T12:05:23.972Z,16.13
2022-11-08T12:07:58.427Z,16.27
2022-11-08T12:31:17.918Z,17.80
2022-11-08T12:33:55.235Z,20.42
2022-11-08T12:36:31.528Z,19.63
2022-11-08T12:39:04.431Z,20.13
2022-11-08T12:41:35.610Z,20.17
2022-11-08T12:44:21.057Z,19.52
2022-11-08T12:46:58.653Z,18.50
2022-11-08T12:49:31.938Z,18.38
2022-11-08T12:52:09.549Z,18.90
2022-11-08T12:54:38.615Z,18.08
2022-11-08T12:57:09.797Z,22.40
2022-11-08T12:59:39.626Z,19.13
2022-11-08T13:02:14.350Z,18.92
2022-11-08T13:04:46.612Z,20.23
2022-11-08T13:07:22.706Z,21.38
2022-11-08T13:09:53.140Z,20.77
2022-11-08T13:12:27.116Z,22.15
2022-11-08T13:14:54.648Z,23.95
2022-11-08T13:17:26.254Z,22.30
2022-11-08T13:20:02.140Z,21.10
2022-11-08T13:22:42.357Z,20.85
2022-11-08T13:25:30.049Z,21.13
2022-11-08T13:27:58.677Z,20.73
2022-11-08T13:30:37.064Z,23.00
2022-11-08T13:33:09.928Z,21.38
2022-11-08T13:35:39.945Z,22.33
2022-11-08T13:38:15.478Z,21.85
2022-11-08T13:40:44.619Z,21.95
2022-11-08T13:43:21.525Z,22.27
2022-11-08T13:45:49.985Z,22.33
2022-11-08T13:48:36.116Z,20.58
2022-11-08T13:51:22.426Z,20.40
2022-11-08T13:53:51.590Z,21.67
2022-11-08T13:56:34.632Z,21.35
2022-11-08T13:59:02.139Z,21.42
2022-11-08T14:01:48.278Z,22.27
2022-11-08T14:04:28.065Z,22.38
2022-11-08T14:07:00.816Z,23.77
2022-11-08T14:09:33.560Z,24.70
2022-11-08T14:12:03.765Z,24.27
2022-11-08T14:14:38.555Z,23.30
2022-11-08T14:17:25.390Z,23.60
2022-11-08T14:19:54.734Z,28.88
2022-11-08T14:22:23.581Z,25.48
2022-11-08T14:24:52.905Z,25.52
2022-11-08T14:27:33.870Z,26.23
2022-11-08T14:30:02.023Z,25.25
2022-11-08T14:32:30.195Z,23.88
2022-11-08T14:35:13.048Z,24.50
2022-11-08T14:37:42.945Z,23.35
2022-11-08T14:40:17.376Z,23.63
2022-11-08T14:42:45.299Z,24.30
2022-11-08T14:45:14.121Z,22.30
2022-11-08T14:47:42.407Z,23.85
2022-11-08T14:50:18.296Z,23.38
2022-11-08T14:52:45.984Z,22.67
2022-11-08T14:55:14.811Z,24.77
2022-11-08T14:57:43.174Z,26.48
2022-11-08T15:00:19.071Z,24.08
2022-11-08T15:02:48.319Z,23.00
2022-11-08T15:05:31.617Z,23.15
2022-11-08T15:07:59.578Z,23.48
2022-11-08T15:10:27.697Z,25.92
2022-11-08T15:12:55.524Z,24.90
2022-11-08T15:15:25.274Z,23.90
2022-11-08T15:18:06.161Z,24.48
2022-11-08T15:20:35.045Z,24.80
2022-11-08T15:23:11.446Z,22.80
2022-11-08T15:25:39.200Z,24.55
2022-11-08T15:28:25.778Z,23.42
2022-11-08T15:30:56.115Z,23.58
2022-11-08T15:33:24.573Z,24.88
2022-11-08T15:35:53.508Z,24.08
2022-11-08T15:38:26.296Z,22.90
2022-11-08T15:40:55.392Z,24.25
2022-11-08T15:43:37.078Z,23.40
2022-11-08T15:46:05.521Z,23.02
2022-11-08T15:48:33.423Z,24.02
2022-11-08T15:51:05.444Z,25.42
2022-11-08T15:53:33.643Z,24.33
2022-11-08T15:56:02.347Z,24.50
2022-11-08T15:58:31.519Z,22.20
2022-11-08T16:01:00.452Z,23.35
2022-11-08T16:03:27.980Z,22.75
2022-11-08T16:05:57.578Z,24.35
2022-11-08T16:08:26.752Z,25.38
2022-11-08T16:10:55.670Z,23.83
2022-11-08T16:13:25.224Z,24.48
2022-11-08T16:15:52.790Z,24.77
2022-11-08T16:18:20.992Z,25.63
2022-11-08T16:20:48.763Z,23.90
2022-11-08T16:23:16.337Z,25.77
2022-11-08T16:25:46.439Z,24.92
2022-11-08T16:28:17.096Z,26.98
2022-11-08T16:30:46.991Z,26.85
2022-11-08T16:33:19.050Z,27.77
2022-11-08T16:35:46.757Z,26.25
2022-11-08T16:38:14.337Z,26.48
2022-11-08T16:40:42.090Z,26.85
2022-11-08T16:43:12.590Z,24.73
2022-11-08T16:46:03.845Z,25.38
2022-11-08T16:48:28.035Z,26.75
2022-11-08T16:50:59.222Z,26.25
2022-11-08T16:53:26.918Z,28.48
2022-11-08T16:55:54.440Z,28.38
2022-11-08T16:58:23.248Z,29.42
2022-11-08T17:00:50.891Z,30.52
2022-11-08T17:03:20.552Z,32.25
2022-11-08T17:05:48.527Z,32.80
2022-11-08T17:08:16.944Z,32.30
2022-11-08T17:10:44.795Z,35.60
2022-11-08T17:13:14.533Z,36.85
2022-11-08T17:15:44.013Z,35.88
2022-11-08T17:18:12.697Z,38.03
2022-11-08T17:20:40.465Z,37.88
2022-11-08T17:23:09.249Z,40.90
2022-11-08T17:25:37.292Z,45.33
2022-11-08T17:28:06.075Z,46.63
2022-11-08T17:30:36.992Z,45.50
2022-11-08T17:33:07.975Z,44.67
2022-11-08T17:35:41.016Z,44.28
2022-11-08T17:38:10.638Z,44.42
2022-11-08T17:40:38.168Z,41.28
2022-11-08T17:43:05.674Z,43.80
2022-11-08T17:45:33.246Z,42.60
2022-11-08T17:48:00.800Z,40.17
2022-11-08T17:50:29.726Z,44.60
2022-11-08T17:52:57.182Z,40.20
2022-11-08T17:55:24.785Z,38.88
2022-11-08T17:57:52.279Z,41.88
2022-11-08T18:00:20.092Z,42.45
2022-11-08T18:02:47.601Z,41.78
2022-11-08T18:05:18.420Z,42.83
2022-11-08T18:07:47.265Z,41.78
2022-11-08T18:10:17.125Z,39.25
2022-11-08T18:12:45.015Z,42.40
2022-11-08T18:15:12.686Z,43.38
2022-11-08T18:17:40.189Z,37.10
2022-11-08T18:20:08.331Z,39.85
2022-11-08T18:22:35.988Z,38.35
2022-11-08T18:25:05.219Z,40.92
2022-11-08T18:27:33.061Z,42.08
2022-11-08T18:30:00.632Z,40.25
2022-11-08T18:32:28.223Z,43.17
2022-11-08T18:34:57.222Z,39.10
2022-11-08T18:37:24.796Z,40.70
2022-11-08T18:39:52.280Z,44.08
2022-11-08T18:42:22.167Z,41.30
2022-11-08T18:44:49.648Z,41.35
2022-11-08T18:47:17.188Z,42.30
2022-11-08T18:49:44.734Z,43.13
2022-11-08T18:52:12.219Z,43.22
2022-11-08T18:54:39.718Z,41.40
2022-11-08T18:57:07.215Z,44.05
2022-11-08T18:59:36.224Z,42.83
2022-11-08T19:02:04.114Z,41.42
2022-11-08T19:04:31.639Z,53.28
2022-11-08T19:06:59.195Z,49.28
2022-11-08T19:09:26.735Z,45.72
2022-11-08T19:11:54.618Z,43.83
2022-11-08T19:14:22.201Z,42.40
2022-11-08T19:16:54.551Z,44.38
2022-11-08T19:19:23.464Z,41.83
2022-11-08T19:21:51.224Z,43.13
2022-11-08T19:24:18.891Z,46.08
2022-11-08T19:26:46.573Z,42.35
2022-11-08T19:29:14.406Z,44.90
2022-11-08T19:31:42.768Z,46.05
2022-11-08T19:34:11.632Z,42.90
2022-11-08T19:36:43.398Z,44.97
2022-11-08T19:39:11.899Z,44.50
2022-11-08T19:41:40.503Z,46.25
2022-11-08T19:44:08.142Z,46.72
2022-11-08T19:46:36.451Z,45.40
2022-11-08T19:49:04.509Z,43.45
2022-11-08T19:51:34.304Z,41.72
2022-11-08T19:54:03.322Z,45.20
2022-11-08T19:56:57.734Z,44.25
2022-11-08T19:59:18.998Z,40.88
2022-11-08T20:01:47.338Z,39.50
2022-11-08T20:04:15.463Z,51.17
2022-11-08T20:06:45.924Z,44.92
2022-11-08T20:09:13.898Z,43.53
2022-11-08T20:11:41.932Z,46.47
2022-11-08T20:14:10.015Z,48.50
2022-11-08T20:16:40.075Z,46.28
2022-11-08T20:19:09.591Z,46.17
2022-11-08T20:21:38.801Z,51.13
2022-11-08T20:24:08.511Z,48.58
2022-11-08T20:26:38.343Z,48.80
2022-11-08T20:29:07.118Z,48.25
2022-11-08T20:31:35.028Z,48.35
2022-11-08T20:34:05.800Z,47.03
2022-11-08T20:36:35.344Z,47.47
2022-11-08T20:39:06.947Z,48.47
2022-11-08T20:41:37.691Z,51.53
2022-11-08T20:44:05.640Z,57.63
2022-11-08T20:46:34.156Z,59.97
2022-11-08T20:49:02.070Z,78.85
2022-11-08T20:51:30.851Z,59.08
2022-11-08T20:53:58.692Z,88.75
2022-11-08T20:56:26.190Z,62.13
2022-11-08T20:58:55.249Z,58.65
2022-11-08T21:01:24.050Z,56.55
2022-11-08T21:03:52.681Z,59.05
2022-11-08T21:06:22.045Z,57.70
2022-11-08T21:08:59.176Z,55.72
2022-11-08T21:11:30.169Z,54.60
2022-11-08T21:13:59.327Z,54.13
2022-11-08T21:16:35.117Z,58.45
2022-11-08T21:19:10.029Z,55.55
2022-11-08T21:21:53.689Z,55.40
2022-11-08T21:24:35.884Z,55.60
2022-11-08T21:27:03.545Z,56.17
2022-11-08T21:29:36.147Z,56.78
2022-11-08T21:32:10.217Z,55.33
2022-11-08T21:34:37.926Z,56.50
2022-11-08T21:37:05.476Z,55.42
2022-11-08T21:39:33.027Z,56.53
2022-11-08T21:42:03.579Z,55.03
2022-11-08T21:44:32.457Z,56.53
2022-11-08T21:47:00.007Z,54.72
2022-11-08T21:49:27.703Z,58.28
2022-11-08T21:51:55.300Z,58.92
2022-11-08T21:54:25.039Z,57.20
2022-11-08T21:56:52.812Z,57.05
2022-11-08T21:59:23.515Z,56.88
2022-11-08T22:04:59.154Z,56.83
2022-11-08T22:07:31.046Z,57.05
2022-11-08T22:10:04.334Z,55.38
2022-11-08T22:12:35.883Z,52.03
2022-11-08T22:15:11.121Z,50.42
2022-11-08T22:18:14.247Z,52.50
2022-11-08T22:21:20.176Z,54.15
2022-11-08T22:23:51.003Z,54.67
2022-11-08T22:26:27.892Z,54.22
2022-11-08T22:29:04.810Z,48.35
2022-11-08T22:31:34.221Z,44.83
2022-11-08T22:34:15.931Z,50.72
2022-11-08T22:37:11.015Z,49.17
2022-11-08T22:39:39.251Z,47.55
2022-11-08T22:42:07.258Z,45.13
2022-11-08T22:44:39.033Z,42.38
2022-11-08T22:47:10.432Z,44.55
2022-11-08T22:49:44.872Z,43.35
2022-11-08T22:52:14.095Z,40.20
2022-11-08T22:54:41.733Z,38.63
2022-11-08T22:57:09.214Z,38.00
2022-11-08T22:59:36.752Z,36.75
2022-11-08T23:02:04.236Z,36.80
2022-11-08T23:04:31.778Z,36.15
2022-11-08T23:06:59.350Z,34.42
2022-11-08T23:09:28.298Z,35.00
2022-11-08T23:12:13.277Z,35.83
2022-11-08T23:14:58.085Z,34.40
2022-11-08T23:17:25.621Z,38.22
2022-11-08T23:20:10.699Z,39.28
2022-11-08T23:22:55.906Z,38.42
2022-11-08T23:25:24.752Z,41.38
2022-11-08T23:28:09.721Z,49.55
2022-11-08T23:30:54.563Z,51.65
2022-11-08T23:33:22.392Z,47.47
2022-11-08T23:36:14.270Z,46.55
2022-11-08T23:38:42.274Z,46.47
2022-11-08T23:41:29.047Z,53.45
2022-11-08T23:44:14.137Z,51.85
2022-11-08T23:46:41.699Z,55.42
2022-11-08T23:49:09.236Z,60.63
2022-11-08T23:51:36.773Z,62.70
2022-11-08T23:54:04.349Z,63.00
2022-11-08T23:56:33.197Z,62.42
2022-11-08T23:59:01.293Z,66.93
